Time;durP1;ratioP1;P1;durP2;ratioP2;P2;SDS_P1;SDS_P2;PMS_P1;PMS_P2;Temp;Humidity;BMP_temperature;BMP_pressure;BME280_temperature;BME280_humidity;BME280_pressure;Samples;Min_cycle;Max_cycle;Signal;HPM_P1;HPM_P2
2022/03/04 00:00:15;;;;;;;13.23;10.37;;;;;;;;;;4991764;28;20693;-68
2022/03/04 00:02:41;;;;;;;12.87;9.57;;;;;;;;;;4976861;28;20193;-68
2022/03/04 00:05:07;;;;;;;12.63;9.40;;;;;;;;;;4991754;28;20212;-68
2022/03/04 00:07:33;;;;;;;13.17;9.90;;;;;;;;;;4995796;28;20553;-67
2022/03/04 00:09:59;;;;;;;13.13;10.40;;;;;;;;;;4991177;28;20204;-68
2022/03/04 00:12:25;;;;;;;12.43;10.03;;;;;;;;;;4993914;28;20197;-69
2022/03/04 00:14:51;;;;;;;14.30;10.40;;;;;;;;;;4995088;28;20213;-68
2022/03/04 00:17:17;;;;;;;12.17;9.40;;;;;;;;;;4989858;28;20185;-68
2022/03/04 00:19:43;;;;;;;13.90;9.90;;;;;;;;;;4978177;28;20251;-68
2022/03/04 00:22:09;;;;;;;13.60;10.63;;;;;;;;;;4997061;28;20277;-68
2022/03/04 00:24:35;;;;;;;14.83;10.20;;;;;;;;;;4979643;28;20259;-68
2022/03/04 00:27:01;;;;;;;14.27;10.43;;;;;;;;;;4975972;28;20328;-68
2022/03/04 00:29:26;;;;;;;11.73;9.73;;;;;;;;;;4969237;28;20691;-68
2022/03/04 00:31:52;;;;;;;13.20;10.13;;;;;;;;;;4981666;28;20215;-68
2022/03/04 00:34:18;;;;;;;13.47;9.47;;;;;;;;;;4987578;28;20201;-68
2022/03/04 00:36:44;;;;;;;14.30;10.33;;;;;;;;;;4990346;28;20678;-70
2022/03/04 00:39:13;;;;;;;13.43;10.33;;;;;;;;;;4984790;28;22018;-69
2022/03/04 00:41:39;;;;;;;13.23;10.70;;;;;;;;;;4968876;28;20201;-68
2022/03/04 00:44:06;;;;;;;13.67;10.60;;;;;;;;;;4986952;28;20197;-68
2022/03/04 00:46:32;;;;;;;13.40;9.80;;;;;;;;;;4984504;28;20239;-68
2022/03/04 00:48:58;;;;;;;13.73;9.67;;;;;;;;;;4952658;28;20803;-67
2022/03/04 00:51:24;;;;;;;13.87;10.70;;;;;;;;;;4965944;28;20196;-68
2022/03/04 00:53:50;;;;;;;13.93;10.60;;;;;;;;;;4934278;28;20307;-68
2022/03/04 00:56:16;;;;;;;13.80;9.67;;;;;;;;;;4966443;28;20224;-68
2022/03/04 00:58:42;;;;;;;12.27;9.83;;;;;;;;;;4981181;28;20278;-67
2022/03/04 01:01:08;;;;;;;14.77;11.00;;;;;;;;;;4982625;28;20716;-68
2022/03/04 01:03:34;;;;;;;12.83;10.43;;;;;;;;;;4969413;28;20603;-68
2022/03/04 01:06:00;;;;;;;20.07;10.50;;;;;;;;;;4990135;28;20193;-68
2022/03/04 01:08:26;;;;;;;15.80;10.97;;;;;;;;;;4970235;28;20292;-68
2022/03/04 01:10:52;;;;;;;15.40;11.23;;;;;;;;;;4982330;28;20584;-68
2022/03/04 01:13:18;;;;;;;15.10;10.97;;;;;;;;;;4968075;28;20552;-68
2022/03/04 01:15:44;;;;;;;14.70;11.43;;;;;;;;;;4989023;28;21873;-68
2022/03/04 01:18:10;;;;;;;14.97;10.80;;;;;;;;;;4973934;28;20764;-68
2022/03/04 01:20:36;;;;;;;12.97;10.10;;;;;;;;;;4985725;28;20193;-69
2022/03/04 01:23:02;;;;;;;15.60;11.33;;;;;;;;;;4971294;28;20283;-68
2022/03/04 01:25:28;;;;;;;17.33;11.27;;;;;;;;;;4965154;28;20228;-69
2022/03/04 01:27:54;;;;;;;14.83;11.20;;;;;;;;;;4978521;28;20200;-68
2022/03/04 01:30:20;;;;;;;13.53;11.07;;;;;;;;;;4958097;28;20239;-68
2022/03/04 01:32:46;;;;;;;14.97;11.23;;;;;;;;;;4954814;28;20797;-68
2022/03/04 01:35:12;;;;;;;19.23;12.20;;;;;;;;;;4946598;28;20217;-68
2022/03/04 01:37:39;;;;;;;18.30;11.23;;;;;;;;;;4958152;28;20820;-67
2022/03/04 01:40:05;;;;;;;17.13;12.37;;;;;;;;;;4979577;28;21208;-68
2022/03/04 01:42:31;;;;;;;14.90;11.17;;;;;;;;;;4958237;28;20196;-68
2022/03/04 01:44:57;;;;;;;18.07;12.00;;;;;;;;;;4977607;28;20222;-67
2022/03/04 01:47:23;;;;;;;15.70;12.07;;;;;;;;;;4959207;28;20244;-69
2022/03/04 01:49:49;;;;;;;16.73;11.40;;;;;;;;;;4959021;28;20232;-69
2022/03/04 01:52:15;;;;;;;15.87;11.80;;;;;;;;;;4960135;28;21848;-68
2022/03/04 01:54:41;;;;;;;14.97;11.47;;;;;;;;;;4954933;28;20228;-67
2022/03/04 01:57:07;;;;;;;16.87;11.40;;;;;;;;;;4953755;28;20856;-68
2022/03/04 01:59:33;;;;;;;16.03;12.20;;;;;;;;;;4952803;28;20428;-68
2022/03/04 02:01:59;;;;;;;17.60;13.00;;;;;;;;;;4968837;28;20188;-68
2022/03/04 02:04:25;;;;;;;15.33;11.67;;;;;;;;;;4979020;28;20239;-68
2022/03/04 02:06:51;;;;;;;15.67;12.20;;;;;;;;;;4979118;28;20193;-67
2022/03/04 02:09:17;;;;;;;18.40;12.37;;;;;;;;;;4980884;28;20845;-69
2022/03/04 02:11:44;;;;;;;17.63;12.37;;;;;;;;;;4978883;28;20323;-68
2022/03/04 02:14:10;;;;;;;16.47;12.00;;;;;;;;;;4956520;28;20670;-68
2022/03/04 02:16:39;;;;;;;16.27;11.87;;;;;;;;;;4967509;28;20196;-67
2022/03/04 02:19:05;;;;;;;15.70;12.00;;;;;;;;;;4989486;28;20255;-69
2022/03/04 02:21:32;;;;;;;18.40;13.03;;;;;;;;;;4981219;28;20200;-68
2022/03/04 02:23:58;;;;;;;17.80;12.90;;;;;;;;;;4972031;28;20202;-68
2022/03/04 02:26:23;;;;;;;14.67;12.00;;;;;;;;;;4973047;28;20837;-68
2022/03/04 02:28:50;;;;;;;17.87;12.13;;;;;;;;;;4975293;28;21720;-68
2022/03/04 02:31:17;;;;;;;19.43;12.83;;;;;;;;;;4973887;28;20654;-69
2022/03/04 02:33:43;;;;;;;17.33;12.63;;;;;;;;;;4968875;28;20267;-69
2022/03/04 02:36:09;;;;;;;19.23;13.17;;;;;;;;;;4989495;28;20220;-68
2022/03/04 02:38:35;;;;;;;18.87;12.53;;;;;;;;;;4983598;28;20285;-69
2022/03/04 02:41:01;;;;;;;16.20;12.47;;;;;;;;;;4990624;28;20200;-68
2022/03/04 02:43:27;;;;;;;16.73;11.93;;;;;;;;;;4986803;28;20678;-68
2022/03/04 02:45:53;;;;;;;18.93;13.03;;;;;;;;;;4974542;28;20759;-67
2022/03/04 02:48:19;;;;;;;18.30;12.23;;;;;;;;;;4980429;28;20297;-68
2022/03/04 02:50:45;;;;;;;18.93;12.57;;;;;;;;;;4985728;28;20236;-68
2022/03/04 02:53:11;;;;;;;19.03;12.83;;;;;;;;;;4965429;28;20199;-67
2022/03/04 02:55:37;;;;;;;17.27;12.70;;;;;;;;;;4965828;28;20252;-68
2022/03/04 02:58:03;;;;;;;16.90;12.83;;;;;;;;;;4985620;28;20197;-68
2022/03/04 03:00:29;;;;;;;17.93;13.17;;;;;;;;;;4988181;28;20197;-67
2022/03/04 03:02:55;;;;;;;15.80;12.00;;;;;;;;;;4961166;28;20248;-68
2022/03/04 03:05:21;;;;;;;19.33;12.40;;;;;;;;;;4957342;28;20737;-68
2022/03/04 03:07:47;;;;;;;17.83;13.03;;;;;;;;;;4972485;28;20211;-67
2022/03/04 03:10:13;;;;;;;16.30;12.00;;;;;;;;;;4987312;28;20193;-67
2022/03/04 03:12:39;;;;;;;17.27;12.50;;;;;;;;;;4976039;28;20196;-69
2022/03/04 03:15:05;;;;;;;19.87;13.40;;;;;;;;;;4990349;28;20604;-66
2022/03/04 03:17:31;;;;;;;16.57;12.50;;;;;;;;;;4974236;28;20738;-67
2022/03/04 03:19:57;;;;;;;19.37;12.60;;;;;;;;;;4971770;28;20312;-67
2022/03/04 03:22:23;;;;;;;18.47;13.87;;;;;;;;;;4982668;28;20193;-69
2022/03/04 03:24:49;;;;;;;16.80;13.03;;;;;;;;;;4973969;28;20204;-67
2022/03/04 03:27:15;;;;;;;17.87;13.30;;;;;;;;;;4947158;28;20272;-67
2022/03/04 03:29:41;;;;;;;17.17;12.87;;;;;;;;;;4991509;28;20551;-68
2022/03/04 03:32:08;;;;;;;17.93;13.43;;;;;;;;;;4971661;28;20207;-68
2022/03/04 03:34:34;;;;;;;17.27;13.40;;;;;;;;;;4991279;28;20521;-67
2022/03/04 03:37:00;;;;;;;18.20;13.57;;;;;;;;;;4986181;28;20201;-68
2022/03/04 03:39:26;;;;;;;19.53;13.70;;;;;;;;;;4985282;28;20391;-68
2022/03/04 03:41:52;;;;;;;18.17;12.77;;;;;;;;;;4985915;28;20608;-69
2022/03/04 03:44:18;;;;;;;17.27;12.67;;;;;;;;;;4990916;28;21397;-68
2022/03/04 03:46:43;;;;;;;19.00;13.57;;;;;;;;;;4978602;28;20711;-67
2022/03/04 03:49:10;;;;;;;18.33;13.43;;;;;;;;;;4978794;28;20893;-67
2022/03/04 03:51:36;;;;;;;17.33;13.00;;;;;;;;;;4969242;28;20193;-67
2022/03/04 03:54:02;;;;;;;19.07;13.63;;;;;;;;;;4979723;28;20282;-67
2022/03/04 03:56:28;;;;;;;17.80;13.57;;;;;;;;;;4975805;28;20740;-68
2022/03/04 03:58:54;;;;;;;17.17;12.93;;;;;;;;;;4957972;28;20651;-68
2022/03/04 04:01:20;;;;;;;17.43;12.63;;;;;;;;;;4948367;28;20451;-68
2022/03/04 04:03:45;;;;;;;18.37;12.60;;;;;;;;;;4968179;28;20261;-67
2022/03/04 04:06:11;;;;;;;16.97;12.63;;;;;;;;;;4966564;28;20311;-68
2022/03/04 04:08:38;;;;;;;20.50;12.47;;;;;;;;;;4990856;28;21034;-67
2022/03/04 04:11:03;;;;;;;17.17;12.97;;;;;;;;;;4958613;28;20871;-67
2022/03/04 04:13:29;;;;;;;16.77;12.37;;;;;;;;;;4967235;28;20793;-67
2022/03/04 04:15:55;;;;;;;18.43;12.27;;;;;;;;;;4986019;28;20213;-68
2022/03/04 04:18:21;;;;;;;15.97;12.40;;;;;;;;;;4993636;28;20477;-67
2022/03/04 04:20:47;;;;;;;16.67;12.73;;;;;;;;;;4959882;28;20623;-68
2022/03/04 04:23:13;;;;;;;18.73;13.30;;;;;;;;;;4980087;28;20674;-67
2022/03/04 04:25:39;;;;;;;19.50;13.03;;;;;;;;;;4975365;28;20683;-69
2022/03/04 04:28:05;;;;;;;17.00;12.53;;;;;;;;;;4983727;28;20211;-68
2022/03/04 04:30:31;;;;;;;19.10;13.70;;;;;;;;;;4963505;28;21019;-68
2022/03/04 04:32:57;;;;;;;20.20;13.00;;;;;;;;;;4951700;28;20200;-67
2022/03/04 04:35:23;;;;;;;23.47;13.23;;;;;;;;;;4980695;28;20258;-68
2022/03/04 04:37:49;;;;;;;20.47;12.60;;;;;;;;;;4982826;28;20193;-69
2022/03/04 04:40:15;;;;;;;20.87;13.57;;;;;;;;;;4985571;28;20224;-67
2022/03/04 04:42:41;;;;;;;18.17;12.97;;;;;;;;;;4975852;28;20785;-67
2022/03/04 04:45:07;;;;;;;19.97;13.97;;;;;;;;;;4967696;28;20581;-68
2022/03/04 04:47:34;;;;;;;18.87;13.20;;;;;;;;;;4976935;28;20224;-67
2022/03/04 04:50:00;;;;;;;17.40;13.53;;;;;;;;;;4962224;28;20287;-68
2022/03/04 04:52:26;;;;;;;16.40;12.30;;;;;;;;;;4961248;28;20208;-68
2022/03/04 04:54:52;;;;;;;16.57;12.90;;;;;;;;;;4981495;28;20225;-67
2022/03/04 04:57:18;;;;;;;18.17;12.80;;;;;;;;;;4957105;28;20721;-68
2022/03/04 04:59:43;;;;;;;17.70;13.50;;;;;;;;;;4972508;28;20204;-68
2022/03/04 05:02:09;;;;;;;21.30;12.40;;;;;;;;;;4975376;28;20242;-68
2022/03/04 05:04:35;;;;;;;19.20;13.00;;;;;;;;;;4975774;28;20563;-67
2022/03/04 05:07:02;;;;;;;17.83;12.80;;;;;;;;;;4966781;28;20275;-67
2022/03/04 05:09:28;;;;;;;17.73;12.90;;;;;;;;;;4959296;28;20196;-67
2022/03/04 05:11:54;;;;;;;18.57;13.03;;;;;;;;;;4983801;28;20703;-67
2022/03/04 05:14:20;;;;;;;17.53;12.83;;;;;;;;;;4979807;28;20204;-68
2022/03/04 05:16:45;;;;;;;16.87;12.33;;;;;;;;;;4985188;28;20203;-67
2022/03/04 05:19:11;;;;;;;18.67;12.90;;;;;;;;;;4982511;28;20241;-68
2022/03/04 05:21:37;;;;;;;18.13;12.87;;;;;;;;;;4987326;28;20192;-67
2022/03/04 05:24:06;;;;;;;18.50;13.57;;;;;;;;;;4986240;28;20240;-69
2022/03/04 05:26:33;;;;;;;19.50;13.63;;;;;;;;;;4962977;28;20271;-68
2022/03/04 05:28:59;;;;;;;18.73;12.80;;;;;;;;;;4983111;28;20196;-68
2022/03/04 05:31:25;;;;;;;18.47;12.57;;;;;;;;;;4956873;28;20693;-68
2022/03/04 05:33:51;;;;;;;18.00;12.80;;;;;;;;;;4961808;28;20244;-68
2022/03/04 05:36:17;;;;;;;20.33;13.60;;;;;;;;;;4953959;28;20948;-68
2022/03/04 05:38:43;;;;;;;18.20;13.63;;;;;;;;;;4952122;28;20200;-68
2022/03/04 05:41:09;;;;;;;17.67;13.23;;;;;;;;;;4974439;28;20708;-67
2022/03/04 05:43:35;;;;;;;18.47;13.00;;;;;;;;;;4975705;28;20330;-67
2022/03/04 05:46:01;;;;;;;17.33;12.87;;;;;;;;;;4952321;28;20822;-68
2022/03/04 05:48:27;;;;;;;18.17;13.03;;;;;;;;;;4955392;28;20217;-67
2022/03/04 05:50:53;;;;;;;16.83;12.80;;;;;;;;;;4954431;28;22648;-68
2022/03/04 05:53:19;;;;;;;20.80;13.20;;;;;;;;;;4977661;28;20315;-68
2022/03/04 05:55:45;;;;;;;17.30;12.80;;;;;;;;;;4982243;28;20910;-67
2022/03/04 05:58:11;;;;;;;19.50;13.30;;;;;;;;;;4966716;28;20722;-69
2022/03/04 06:00:37;;;;;;;18.10;13.13;;;;;;;;;;4970448;28;20647;-68
2022/03/04 06:03:03;;;;;;;33.27;14.07;;;;;;;;;;4986701;28;20224;-69
2022/03/04 06:05:29;;;;;;;33.80;14.10;;;;;;;;;;4955807;28;20276;-69
2022/03/04 06:07:55;;;;;;;31.27;14.43;;;;;;;;;;4961678;28;20196;-69
2022/03/04 06:10:21;;;;;;;32.23;14.37;;;;;;;;;;4944861;28;20237;-68
2022/03/04 06:12:47;;;;;;;26.83;14.57;;;;;;;;;;4979620;28;20204;-68
2022/03/04 06:15:13;;;;;;;23.67;14.60;;;;;;;;;;4982680;28;20227;-67
2022/03/04 06:17:39;;;;;;;31.30;14.93;;;;;;;;;;4993212;28;20200;-69
2022/03/04 06:20:05;;;;;;;30.93;14.97;;;;;;;;;;4967243;28;20219;-67
2022/03/04 06:22:33;;;;;;;23.10;14.77;;;;;;;;;;4985026;28;20204;-68
2022/03/04 06:24:59;;;;;;;23.50;14.10;;;;;;;;;;4969540;28;20336;-67
2022/03/04 06:27:24;;;;;;;24.93;15.17;;;;;;;;;;4986691;28;20785;-68
2022/03/04 06:29:50;;;;;;;22.97;14.17;;;;;;;;;;4984765;28;20204;-67
2022/03/04 06:32:16;;;;;;;20.33;14.20;;;;;;;;;;4979379;28;20858;-68
2022/03/04 06:34:42;;;;;;;20.33;14.27;;;;;;;;;;4991646;28;20223;-67
2022/03/04 06:37:08;;;;;;;22.33;13.77;;;;;;;;;;5004255;28;20985;-67
2022/03/04 06:39:34;;;;;;;22.30;14.17;;;;;;;;;;5003093;28;20203;-68
2022/03/04 06:42:00;;;;;;;20.20;14.23;;;;;;;;;;5000311;28;20193;-68
2022/03/04 06:44:26;;;;;;;18.83;13.17;;;;;;;;;;5007531;28;21411;-68
2022/03/04 06:46:52;;;;;;;19.43;14.00;;;;;;;;;;4992447;28;20197;-68
2022/03/04 06:49:18;;;;;;;22.57;14.20;;;;;;;;;;4999015;28;20201;-68
2022/03/04 06:51:44;;;;;;;23.43;14.50;;;;;;;;;;4992611;28;20201;-67
2022/03/04 06:54:10;;;;;;;25.37;13.73;;;;;;;;;;4999966;28;20200;-67
2022/03/04 06:56:36;;;;;;;21.37;13.23;;;;;;;;;;4996753;28;22240;-67
2022/03/04 06:59:02;;;;;;;23.63;14.37;;;;;;;;;;4980678;28;21582;-67
2022/03/04 07:01:28;;;;;;;20.47;14.40;;;;;;;;;;4981475;28;20196;-68
2022/03/04 07:03:54;;;;;;;19.27;12.73;;;;;;;;;;5000383;28;20232;-68
2022/03/04 07:06:20;;;;;;;19.77;13.73;;;;;;;;;;4994496;28;20217;-68
2022/03/04 07:08:46;;;;;;;20.63;14.30;;;;;;;;;;4985740;28;20361;-66
2022/03/04 07:11:11;;;;;;;19.83;13.43;;;;;;;;;;4989178;28;20204;-67
2022/03/04 07:13:37;;;;;;;20.80;14.07;;;;;;;;;;4999011;28;20191;-68
2022/03/04 07:16:03;;;;;;;22.73;14.43;;;;;;;;;;4997664;28;20224;-67
2022/03/04 07:18:29;;;;;;;19.17;13.97;;;;;;;;;;4984755;28;20269;-67
2022/03/04 07:21:00;;;;;;;20.40;14.03;;;;;;;;;;4981970;28;20200;-67
2022/03/04 07:23:26;;;;;;;21.63;13.57;;;;;;;;;;4982997;28;20205;-67
2022/03/04 07:25:52;;;;;;;20.83;13.73;;;;;;;;;;4984170;28;20208;-67
2022/03/04 07:28:18;;;;;;;19.17;14.00;;;;;;;;;;5008750;28;20204;-67
2022/03/04 07:30:44;;;;;;;19.70;14.53;;;;;;;;;;5007100;28;21105;-67
2022/03/04 07:33:10;;;;;;;20.97;14.83;;;;;;;;;;5005117;28;20201;-68
2022/03/04 07:35:39;;;;;;;21.90;14.33;;;;;;;;;;5005482;28;20598;-67
2022/03/04 07:38:05;;;;;;;21.20;14.50;;;;;;;;;;4979806;28;20612;-67
2022/03/04 07:40:31;;;;;;;20.37;13.60;;;;;;;;;;4975764;28;20280;-67
2022/03/04 07:42:58;;;;;;;20.63;13.77;;;;;;;;;;4982798;28;20215;-67
2022/03/04 07:45:24;;;;;;;19.40;13.17;;;;;;;;;;4988551;28;20657;-66
2022/03/04 07:47:50;;;;;;;21.07;15.37;;;;;;;;;;4990646;28;20231;-67
2022/03/04 07:50:16;;;;;;;21.77;14.83;;;;;;;;;;4972585;28;20193;-67
2022/03/04 07:52:42;;;;;;;19.93;13.77;;;;;;;;;;4976588;28;20214;-68
2022/03/04 07:55:09;;;;;;;21.63;15.60;;;;;;;;;;4988967;28;20231;-67
2022/03/04 07:57:35;;;;;;;22.30;15.33;;;;;;;;;;4972079;28;20200;-67
2022/03/04 08:00:01;;;;;;;20.77;15.73;;;;;;;;;;4989133;28;21895;-67
2022/03/04 08:02:27;;;;;;;20.93;14.73;;;;;;;;;;4976678;28;20213;-67
2022/03/04 08:04:53;;;;;;;21.53;15.23;;;;;;;;;;4987652;28;20244;-67
2022/03/04 08:07:18;;;;;;;23.90;15.27;;;;;;;;;;4994138;28;20594;-68
2022/03/04 08:09:45;;;;;;;21.70;15.80;;;;;;;;;;4982083;28;20189;-67
2022/03/04 08:12:11;;;;;;;24.43;15.63;;;;;;;;;;4997447;28;20212;-67
2022/03/04 08:14:38;;;;;;;20.53;14.47;;;;;;;;;;4989727;28;20288;-67
2022/03/04 08:17:04;;;;;;;19.23;14.10;;;;;;;;;;4999680;28;20936;-67
2022/03/04 08:19:30;;;;;;;20.03;12.73;;;;;;;;;;4997302;28;20197;-68
2022/03/04 08:21:56;;;;;;;23.20;14.10;;;;;;;;;;4984623;28;20372;-67
2022/03/04 08:24:22;;;;;;;23.23;15.43;;;;;;;;;;4977754;28;20197;-67
2022/03/04 08:26:48;;;;;;;23.70;15.43;;;;;;;;;;4992472;28;20308;-68
2022/03/04 08:29:14;;;;;;;22.60;14.17;;;;;;;;;;5001588;28;20203;-68
2022/03/04 08:31:40;;;;;;;21.50;14.83;;;;;;;;;;4987054;28;20206;-68
2022/03/04 08:34:06;;;;;;;20.07;15.23;;;;;;;;;;4973416;28;20618;-67
2022/03/04 08:36:32;;;;;;;20.37;14.73;;;;;;;;;;4996961;28;20213;-68
2022/03/04 08:39:02;;;;;;;20.10;13.67;;;;;;;;;;4993542;28;20207;-67
2022/03/04 08:41:28;;;;;;;22.77;14.70;;;;;;;;;;4970595;28;20192;-68
2022/03/04 08:43:54;;;;;;;19.67;14.87;;;;;;;;;;5002142;28;20220;-68
2022/03/04 08:46:21;;;;;;;19.57;14.53;;;;;;;;;;4994799;28;20225;-67
2022/03/04 08:48:47;;;;;;;18.17;14.13;;;;;;;;;;4974229;28;20235;-68
2022/03/04 08:51:13;;;;;;;17.93;13.60;;;;;;;;;;4967850;28;20193;-68
2022/03/04 08:53:39;;;;;;;19.53;14.23;;;;;;;;;;4992461;28;20217;-67
2022/03/04 08:56:05;;;;;;;22.30;15.47;;;;;;;;;;4969840;28;20267;-73
2022/03/04 08:58:31;;;;;;;21.50;16.00;;;;;;;;;;4973471;28;21258;-73
2022/03/04 09:00:57;;;;;;;24.47;15.70;;;;;;;;;;4956958;28;20275;-69
2022/03/04 09:03:23;;;;;;;19.93;14.70;;;;;;;;;;4978303;28;20237;-68
2022/03/04 09:05:49;;;;;;;19.53;15.20;;;;;;;;;;4981066;28;20232;-68
2022/03/04 09:08:15;;;;;;;22.60;14.40;;;;;;;;;;4990700;28;20283;-68
2022/03/04 09:10:42;;;;;;;21.83;14.60;;;;;;;;;;4973144;28;20248;-68
2022/03/04 09:13:08;;;;;;;20.30;15.17;;;;;;;;;;4991195;28;20745;-69
2022/03/04 09:15:34;;;;;;;19.63;15.80;;;;;;;;;;4974129;28;20213;-68
2022/03/04 09:18:00;;;;;;;20.23;15.50;;;;;;;;;;4998838;28;20679;-68
2022/03/04 09:20:26;;;;;;;18.53;15.13;;;;;;;;;;5001919;28;20209;-69
2022/03/04 09:22:53;;;;;;;20.87;17.07;;;;;;;;;;5003048;28;20189;-69
2022/03/04 09:25:19;;;;;;;24.50;16.90;;;;;;;;;;4990121;28;20315;-68
2022/03/04 09:27:46;;;;;;;19.67;16.00;;;;;;;;;;4970332;28;22113;-68
2022/03/04 09:30:12;;;;;;;21.83;16.57;;;;;;;;;;4988170;28;20196;-68
2022/03/04 09:32:39;;;;;;;22.30;17.23;;;;;;;;;;4997344;28;20228;-69
2022/03/04 09:35:05;;;;;;;20.70;15.73;;;;;;;;;;4980334;28;20235;-69
2022/03/04 09:37:31;;;;;;;20.23;16.87;;;;;;;;;;4993802;28;20307;-69
2022/03/04 09:39:57;;;;;;;20.50;17.10;;;;;;;;;;4982933;28;20213;-68
2022/03/04 09:42:23;;;;;;;25.27;17.90;;;;;;;;;;4996468;28;20190;-68
2022/03/04 09:44:49;;;;;;;20.73;17.17;;;;;;;;;;4986205;28;20207;-68
2022/03/04 09:47:16;;;;;;;22.63;17.80;;;;;;;;;;4993099;28;20200;-69
2022/03/04 09:49:42;;;;;;;21.03;17.70;;;;;;;;;;4967580;28;20196;-69
2022/03/04 09:52:08;;;;;;;21.77;17.43;;;;;;;;;;4980176;28;20243;-69
2022/03/04 09:54:34;;;;;;;22.10;17.47;;;;;;;;;;4980709;28;20251;-69
2022/03/04 09:57:00;;;;;;;21.90;16.67;;;;;;;;;;4995435;28;20304;-68
2022/03/04 09:59:26;;;;;;;25.53;17.57;;;;;;;;;;4974185;28;20189;-69
2022/03/04 10:01:52;;;;;;;20.83;16.70;;;;;;;;;;4977761;28;20182;-68
2022/03/04 10:04:18;;;;;;;21.57;16.53;;;;;;;;;;4989559;28;20338;-69
2022/03/04 10:06:51;;;;;;;23.00;18.43;;;;;;;;;;4994265;28;20197;-69
2022/03/04 10:09:35;;;;;;;20.43;18.23;;;;;;;;;;4995266;28;20204;-69
2022/03/04 10:12:02;;;;;;;19.97;16.60;;;;;;;;;;4991610;28;20231;-69
2022/03/04 10:14:28;;;;;;;19.47;16.90;;;;;;;;;;4971712;28;20208;-69
2022/03/04 10:16:56;;;;;;;22.20;16.30;;;;;;;;;;4989196;28;20217;-70
2022/03/04 10:19:23;;;;;;;17.00;15.13;;;;;;;;;;4973920;28;20194;-69
2022/03/04 10:21:50;;;;;;;18.47;16.37;;;;;;;;;;4991657;28;20193;-70
2022/03/04 10:24:20;;;;;;;20.97;17.37;;;;;;;;;;4981217;28;20319;-70
2022/03/04 10:26:46;;;;;;;22.50;18.03;;;;;;;;;;5000049;28;20646;-69
2022/03/04 10:29:19;;;;;;;22.23;18.67;;;;;;;;;;4992969;28;20201;-70
2022/03/04 10:32:04;;;;;;;21.87;18.10;;;;;;;;;;4982999;28;20224;-69
2022/03/04 10:34:30;;;;;;;21.60;19.03;;;;;;;;;;4981215;28;20199;-69
2022/03/04 10:36:56;;;;;;;24.87;16.80;;;;;;;;;;4988039;28;20221;-70
2022/03/04 10:39:22;;;;;;;21.90;17.77;;;;;;;;;;4959565;28;20205;-69
2022/03/04 10:41:51;;;;;;;21.70;18.10;;;;;;;;;;4991593;28;22428;-69
2022/03/04 10:44:27;;;;;;;23.37;18.03;;;;;;;;;;4985115;28;20197;-69
2022/03/04 10:46:56;;;;;;;18.93;15.70;;;;;;;;;;4974687;28;20201;-70
2022/03/04 10:49:26;;;;;;;19.73;16.53;;;;;;;;;;4978890;28;20229;-70
2022/03/04 10:51:52;;;;;;;21.60;17.27;;;;;;;;;;4976548;28;20225;-69
2022/03/04 10:54:18;;;;;;;20.60;17.67;;;;;;;;;;4981441;28;20211;-70
2022/03/04 10:56:47;;;;;;;26.00;18.97;;;;;;;;;;5001700;28;20215;-69
2022/03/04 10:59:13;;;;;;;20.27;17.60;;;;;;;;;;4984154;28;20221;-70
2022/03/04 11:01:45;;;;;;;20.23;18.13;;;;;;;;;;5000938;28;20546;-69
2022/03/04 11:04:11;;;;;;;23.93;19.27;;;;;;;;;;4984481;28;20229;-70
2022/03/04 11:06:38;;;;;;;21.97;18.93;;;;;;;;;;4998127;28;20223;-70
2022/03/04 11:09:04;;;;;;;26.27;19.27;;;;;;;;;;4984343;28;20188;-70
2022/03/04 11:11:31;;;;;;;23.90;18.53;;;;;;;;;;4985795;28;20650;-70
2022/03/04 11:13:58;;;;;;;22.60;18.90;;;;;;;;;;4986075;28;20328;-69
2022/03/04 11:16:24;;;;;;;21.23;17.13;;;;;;;;;;4973100;28;20221;-70
2022/03/04 11:18:50;;;;;;;23.17;20.03;;;;;;;;;;4984394;28;20201;-69
2022/03/04 11:21:15;;;;;;;23.77;19.87;;;;;;;;;;4981121;28;20597;-69
2022/03/04 11:23:42;;;;;;;20.47;18.20;;;;;;;;;;4982995;28;20186;-70
2022/03/04 11:26:17;;;;;;;22.93;18.27;;;;;;;;;;4982464;28;20208;-70
2022/03/04 11:28:43;;;;;;;23.00;18.57;;;;;;;;;;4991220;28;20203;-69
2022/03/04 11:31:10;;;;;;;20.67;18.47;;;;;;;;;;4970060;28;22000;-70
2022/03/04 11:33:43;;;;;;;21.47;18.50;;;;;;;;;;4977642;28;20677;-70
2022/03/04 11:36:09;;;;;;;22.60;18.63;;;;;;;;;;4993040;28;20674;-69
2022/03/04 11:38:44;;;;;;;23.07;18.97;;;;;;;;;;4980124;28;20201;-69
2022/03/04 11:41:10;;;;;;;22.40;20.00;;;;;;;;;;4987469;28;20244;-70
2022/03/04 11:43:56;;;;;;;22.77;18.97;;;;;;;;;;4966512;28;20291;-70
2022/03/04 11:46:22;;;;;;;23.03;20.27;;;;;;;;;;4985732;28;20284;-70
2022/03/04 11:48:48;;;;;;;23.53;19.30;;;;;;;;;;4980126;28;21706;-70
2022/03/04 11:51:20;;;;;;;22.13;19.67;;;;;;;;;;4979371;28;20204;-70
2022/03/04 11:53:58;;;;;;;21.93;19.47;;;;;;;;;;4962658;28;20209;-70
2022/03/04 11:56:25;;;;;;;23.97;20.10;;;;;;;;;;4974977;28;20224;-71
2022/03/04 11:58:57;;;;;;;21.47;18.67;;;;;;;;;;4967371;28;21164;-70
2022/03/04 12:01:27;;;;;;;25.57;19.53;;;;;;;;;;4976449;28;20208;-70
2022/03/04 12:04:08;;;;;;;20.73;17.83;;;;;;;;;;4980717;28;20266;-70
2022/03/04 12:06:34;;;;;;;20.63;17.60;;;;;;;;;;4996660;28;20709;-70
2022/03/04 12:09:19;;;;;;;21.57;17.83;;;;;;;;;;4997451;28;20197;-71
2022/03/04 12:12:03;;;;;;;21.70;18.27;;;;;;;;;;4973462;28;20221;-70
2022/03/04 12:14:29;;;;;;;26.67;18.17;;;;;;;;;;4979013;28;20282;-69
2022/03/04 12:16:56;;;;;;;18.50;14.63;;;;;;;;;;4984586;28;20236;-70
2022/03/04 12:19:29;;;;;;;15.73;12.05;;;;;;;;;;4962985;28;20208;-70
2022/03/04 12:21:58;;;;;;;12.38;9.10;;;;;;;;;;4966632;28;20198;-70
2022/03/04 12:24:31;;;;;;;20.80;16.77;;;;;;;;;;4974434;28;20194;-70
2022/03/04 12:26:57;;;;;;;17.58;14.82;;;;;;;;;;4960702;28;21013;-70
2022/03/04 12:29:25;;;;;;;16.33;13.55;;;;;;;;;;4976661;28;20208;-70
2022/03/04 12:31:51;;;;;;;16.48;14.35;;;;;;;;;;4969321;28;20203;-70
2022/03/04 12:34:19;;;;;;;15.65;14.00;;;;;;;;;;4964830;28;20193;-71
2022/03/04 12:36:45;;;;;;;15.27;13.48;;;;;;;;;;4953708;28;20204;-70
2022/03/04 12:39:11;;;;;;;17.85;12.88;;;;;;;;;;4972731;28;20200;-70
2022/03/04 12:41:37;;;;;;;15.07;12.43;;;;;;;;;;4979512;28;20514;-70
2022/03/04 12:44:06;;;;;;;14.10;12.70;;;;;;;;;;4960911;28;20204;-70
2022/03/04 12:46:34;;;;;;;17.70;12.40;;;;;;;;;;4967042;28;20279;-69
2022/03/04 12:49:00;;;;;;;13.45;11.45;;;;;;;;;;4975249;28;20189;-69
2022/03/04 12:51:29;;;;;;;12.63;8.05;;;;;;;;;;4963418;28;21296;-71
2022/03/04 12:53:57;;;;;;;13.90;10.30;;;;;;;;;;4979186;28;20298;-71
2022/03/04 12:56:23;;;;;;;15.32;11.23;;;;;;;;;;4967466;28;20252;-71
2022/03/04 12:58:53;;;;;;;14.13;10.77;;;;;;;;;;4962671;28;20213;-72
2022/03/04 13:01:19;;;;;;;16.90;10.60;;;;;;;;;;4986408;28;20194;-71
2022/03/04 13:03:46;;;;;;;12.73;10.93;;;;;;;;;;4963263;28;20228;-70
2022/03/04 13:06:12;;;;;;;10.93;9.80;;;;;;;;;;4970679;28;20272;-70
2022/03/04 13:09:05;;;;;;;12.95;8.63;;;;;;;;;;4993204;28;20193;-70
2022/03/04 13:11:34;;;;;;;13.75;10.40;;;;;;;;;;4980355;28;20243;-71
2022/03/04 13:14:02;;;;;;;10.75;8.65;;;;;;;;;;4954625;28;20201;-71
2022/03/04 13:16:40;;;;;;;12.43;8.68;;;;;;;;;;4980150;28;20316;-69
2022/03/04 13:19:06;;;;;;;10.02;9.02;;;;;;;;;;4976990;28;20228;-71
2022/03/04 13:21:36;;;;;;;12.43;9.10;;;;;;;;;;4971408;28;20267;-72
2022/03/04 13:24:06;;;;;;;9.38;8.48;;;;;;;;;;4964791;28;20197;-70
2022/03/04 13:26:32;;;;;;;12.93;10.40;;;;;;;;;;4966094;28;20268;-71
2022/03/04 13:28:59;;;;;;;9.88;8.25;;;;;;;;;;4971003;28;20359;-71
2022/03/04 13:31:29;;;;;;;10.45;7.75;;;;;;;;;;4975164;28;20291;-71
2022/03/04 13:33:59;;;;;;;11.73;8.02;;;;;;;;;;4959517;28;20310;-70
2022/03/04 13:37:00;;;;;;;9.80;8.25;;;;;;;;;;4966909;28;20322;-70
2022/03/04 13:39:27;;;;;;;9.50;7.18;;;;;;;;;;4922772;28;20688;-71
2022/03/04 13:42:12;;;;;;;8.65;7.47;;;;;;;;;;4963986;28;20280;-71
2022/03/04 13:44:57;;;;;;;12.77;8.30;;;;;;;;;;4969597;28;20193;-71
2022/03/04 13:47:29;;;;;;;9.45;8.27;;;;;;;;;;4988417;28;20212;-71
2022/03/04 13:49:55;;;;;;;9.05;7.63;;;;;;;;;;4985367;28;20288;-71
2022/03/04 13:52:21;;;;;;;9.32;7.82;;;;;;;;;;4997694;28;20219;-71
2022/03/04 13:54:47;;;;;;;10.80;7.35;;;;;;;;;;4954211;28;20302;-72
2022/03/04 13:57:32;;;;;;;10.20;7.30;;;;;;;;;;4991045;28;20196;-71
2022/03/04 14:00:05;;;;;;;8.55;7.75;;;;;;;;;;4978161;28;22068;-72
2022/03/04 14:02:37;;;;;;;12.32;7.78;;;;;;;;;;4976203;28;20196;-71
2022/03/04 14:05:03;;;;;;;11.35;8.38;;;;;;;;;;4976498;28;21026;-71
2022/03/04 14:07:29;;;;;;;8.35;7.45;;;;;;;;;;4971666;28;20745;-77
2022/03/04 14:09:55;;;;;;;11.65;9.02;;;;;;;;;;4978553;28;20200;-70
2022/03/04 14:12:22;;;;;;;11.02;9.00;;;;;;;;;;4988229;28;20190;-69
2022/03/04 14:14:48;;;;;;;10.63;9.53;;;;;;;;;;4955364;28;20213;-70
2022/03/04 14:17:14;;;;;;;9.48;8.55;;;;;;;;;;4986650;28;20195;-70